Station Historical Data
Daily Summary for March 27, 2017 Units:  Both    English   Metric
« Previous Day
Next Day »
Daily Weekly Monthly Yearly Custom
  High: Low: Average:
Temperature: 53.6 °F /  12 °C 45.2 °F /  7.3 °C 49.1 °F /  9.5 °C
Dew Point: 49.5 °F /  9.7 °C 43.0 °F /  6.1 °C 45.4 °F /  7.4 °C
Humidity: 93% 81% 87%
Wind Speed: 10.0mph /  16.1km/h - 4.3mph /  6.9km/h
Wind Gust: 16.0mph /  25.7km/h - -
Wind- - SSW
Pressure: 29.97 in /  1014.8 hPa 29.88 in /  1011.7 hPa -
Precipitation: 0.00 in /  0 mm    
Historical Graphs
 
 
Tabular Data for March 27, 2017
Time Temperature Dew Point Pressure Wind Wind Speed Wind Gust Humidity Rainfall Rate (Hourly)
00:04 48.3 °F /  9.1 °C 44.6 °F /  7 °C 29.97in /  1014.8hPa SW 3.0mph /  4.8km/h 4.0mph /  6.4km/h 87% 0.02in /  0.51mm
00:09 48.5 °F /  9.2 °C 44.8 °F /  7.1 °C 29.97in /  1014.8hPa South 3.0mph /  4.8km/h 8.0mph /  12.9km/h 87% 0.02in /  0.51mm
00:14 48.5 °F /  9.2 °C 44.8 °F /  7.1 °C 29.96in /  1014.4hPa South 4.0mph /  6.4km/h 8.0mph /  12.9km/h 87% 0.01in /  0.25mm
00:19 48.5 °F /  9.2 °C 44.5 °F /  6.9 °C 29.96in /  1014.4hPa SSW 5.0mph /  8km/h 7.0mph /  11.3km/h 86% 0.01in /  0.25mm
00:24 48.7 °F /  9.3 °C 44.7 °F /  7.1 °C 29.96in /  1014.4hPa SSW 4.0mph /  6.4km/h 8.0mph /  12.9km/h 86% 0.01in /  0.25mm
00:29 48.8 °F /  9.3 °C 44.8 °F /  7.1 °C 29.96in /  1014.4hPa South 4.0mph /  6.4km/h 8.0mph /  12.9km/h 86% 0.00in /  0mm
00:34 48.8 °F /  9.3 °C 44.5 °F /  6.9 °C 29.96in /  1014.4hPa South 4.0mph /  6.4km/h 8.0mph /  12.9km/h 85% 0.00in /  0mm
00:39 48.9 °F /  9.4 °C 44.6 °F /  7 °C 29.96in /  1014.4hPa South 2.0mph /  3.2km/h 11.0mph /  17.7km/h 85% 0.00in /  0mm
00:44 49.0 °F /  9.4 °C 44.7 °F /  7.1 °C 29.96in /  1014.4hPa SSW 5.0mph /  8km/h 9.0mph /  14.5km/h 85% 0.00in /  0mm
00:49 49.0 °F /  9.4 °C 44.7 °F /  7.1 °C 29.95in /  1014.1hPa SSW 7.0mph /  11.3km/h 8.0mph /  12.9km/h 85% 0.00in /  0mm
00:54 49.0 °F /  9.4 °C 44.4 °F /  6.9 °C 29.95in /  1014.1hPa SSE 4.0mph /  6.4km/h 7.0mph /  11.3km/h 84% 0.00in /  0mm
00:59 48.8 °F /  9.3 °C 44.2 °F /  6.8 °C 29.95in /  1014.1hPa South 4.0mph /  6.4km/h 7.0mph /  11.3km/h 84% 0.00in /  0mm
01:04 48.7 °F /  9.3 °C 44.1 °F /  6.7 °C 29.94in /  1013.8hPa South 4.0mph /  6.4km/h 8.0mph /  12.9km/h 84% 0.00in /  0mm
01:09 48.7 °F /  9.3 °C 44.1 °F /  6.7 °C 29.94in /  1013.8hPa South 4.0mph /  6.4km/h 9.0mph /  14.5km/h 84% 0.00in /  0mm
01:14 48.7 °F /  9.3 °C 44.1 °F /  6.7 °C 29.94in /  1013.8hPa South 4.0mph /  6.4km/h 9.0mph /  14.5km/h 84% 0.00in /  0mm
01:19 48.8 °F /  9.3 °C 44.2 °F /  6.8 °C 29.94in /  1013.8hPa SSW 3.0mph /  4.8km/h 12.0mph /  19.3km/h 84% 0.00in /  0mm
01:24 48.9 °F /  9.4 °C 44.3 °F /  6.8 °C 29.94in /  1013.8hPa South 5.0mph /  8km/h 12.0mph /  19.3km/h 84% 0.00in /  0mm
01:29 49.0 °F /  9.4 °C 44.4 °F /  6.9 °C 29.94in /  1013.8hPa South 4.0mph /  6.4km/h 9.0mph /  14.5km/h 84% 0.00in /  0mm
01:34 49.0 °F /  9.4 °C 44.4 °F /  6.9 °C 29.93in /  1013.4hPa South 4.0mph /  6.4km/h 7.0mph /  11.3km/h 84% 0.00in /  0mm
01:39 49.0 °F /  9.4 °C 44.4 °F /  6.9 °C 29.93in /  1013.4hPa SSE 3.0mph /  4.8km/h 8.0mph /  12.9km/h 84% 0.00in /  0mm
01:44 48.9 °F /  9.4 °C 44.3 °F /  6.8 °C 29.93in /  1013.4hPa SSE 4.0mph /  6.4km/h 7.0mph /  11.3km/h 84% 0.00in /  0mm
01:49 48.9 °F /  9.4 °C 44.3 °F /  6.8 °C 29.93in /  1013.4hPa South 3.0mph /  4.8km/h 7.0mph /  11.3km/h 84% 0.00in /  0mm
01:54 48.9 °F /  9.4 °C 44.3 °F /  6.8 °C 29.93in /  1013.4hPa South 4.0mph /  6.4km/h 7.0mph /  11.3km/h 84% 0.00in /  0mm
01:59 49.0 °F /  9.4 °C 44.1 °F /  6.7 °C 29.93in /  1013.4hPa South 4.0mph /  6.4km/h 8.0mph /  12.9km/h 83% 0.00in /  0mm
02:04 49.1 °F /  9.5 °C 44.2 °F /  6.8 °C 29.93in /  1013.4hPa South 4.0mph /  6.4km/h 8.0mph /  12.9km/h 83% 0.00in /  0mm
02:09 49.1 °F /  9.5 °C 44.2 °F /  6.8 °C 29.93in /  1013.4hPa SSW 5.0mph /  8km/h 6.0mph /  9.7km/h 83% 0.00in /  0mm
02:14 49.1 °F /  9.5 °C 44.2 °F /  6.8 °C 29.92in /  1013.1hPa South 5.0mph /  8km/h 9.0mph /  14.5km/h 83% 0.00in /  0mm
02:19 49.1 °F /  9.5 °C 44.2 °F /  6.8 °C 29.92in /  1013.1hPa South 2.0mph /  3.2km/h 6.0mph /  9.7km/h 83% 0.00in /  0mm
02:24 49.0 °F /  9.4 °C 44.1 °F /  6.7 °C 29.92in /  1013.1hPa South 3.0mph /  4.8km/h 6.0mph /  9.7km/h 83% 0.00in /  0mm
02:29 49.0 °F /  9.4 °C 44.1 °F /  6.7 °C 29.92in /  1013.1hPa South 3.0mph /  4.8km/h 6.0mph /  9.7km/h 83% 0.00in /  0mm
02:34 49.0 °F /  9.4 °C 44.1 °F /  6.7 °C 29.92in /  1013.1hPa South 3.0mph /  4.8km/h 7.0mph /  11.3km/h 83% 0.00in /  0mm
02:39 49.1 °F /  9.5 °C 44.2 °F /  6.8 °C 29.92in /  1013.1hPa SSW 2.0mph /  3.2km/h 7.0mph /  11.3km/h 83% 0.00in /  0mm
02:44 49.1 °F /  9.5 °C 44.2 °F /  6.8 °C 29.92in /  1013.1hPa SSW 4.0mph /  6.4km/h 5.0mph /  8km/h 83% 0.00in /  0mm
02:49 49.3 °F /  9.6 °C 44.4 °F /  6.9 °C 29.92in /  1013.1hPa South 3.0mph /  4.8km/h 9.0mph /  14.5km/h 83% 0.00in /  0mm
02:54 49.5 °F /  9.7 °C 44.6 °F /  7 °C 29.92in /  1013.1hPa SSW 3.0mph /  4.8km/h 6.0mph /  9.7km/h 83% 0.00in /  0mm
02:59 49.6 °F /  9.8 °C 44.6 °F /  7 °C 29.92in /  1013.1hPa South 3.0mph /  4.8km/h 7.0mph /  11.3km/h 83% 0.00in /  0mm
03:04 49.6 °F /  9.8 °C 44.6 °F /  7 °C 29.91in /  1012.8hPa South 4.0mph /  6.4km/h 9.0mph /  14.5km/h 83% 0.00in /  0mm
03:09 49.6 °F /  9.8 °C 44.6 °F /  7 °C 29.91in /  1012.8hPa South 4.0mph /  6.4km/h 9.0mph /  14.5km/h 83% 0.00in /  0mm
03:14 49.6 °F /  9.8 °C 44.6 °F /  7 °C 29.91in /  1012.8hPa SSW 5.0mph /  8km/h 7.0mph /  11.3km/h 83% 0.00in /  0mm
03:19 49.7 °F /  9.8 °C 44.7 °F /  7.1 °C 29.90in /  1012.4hPa SSW 4.0mph /  6.4km/h 8.0mph /  12.9km/h 83% 0.00in /  0mm
03:24 49.7 °F /  9.8 °C 44.7 °F /  7.1 °C 29.90in /  1012.4hPa South 2.0mph /  3.2km/h 6.0mph /  9.7km/h 83% 0.00in /  0mm
03:29 49.8 °F /  9.9 °C 44.8 °F /  7.1 °C 29.90in /  1012.4hPa South 4.0mph /  6.4km/h 7.0mph /  11.3km/h 83% 0.00in /  0mm
03:34 49.8 °F /  9.9 °C 44.8 °F /  7.1 °C 29.90in /  1012.4hPa South 4.0mph /  6.4km/h 7.0mph /  11.3km/h 83% 0.00in /  0mm
03:39 49.9 °F /  9.9 °C 45.3 °F /  7.4 °C 29.90in /  1012.4hPa South 4.0mph /  6.4km/h 7.0mph /  11.3km/h 84% 0.00in /  0mm
03:44 50.0 °F /  10 °C 45.0 °F /  7.2 °C 29.90in /  1012.4hPa South 4.0mph /  6.4km/h 7.0mph /  11.3km/h 83% 0.00in /  0mm
03:49 50.1 °F /  10.1 °C 45.1 °F /  7.3 °C 29.89in /  1012.1hPa South 4.0mph /  6.4km/h 7.0mph /  11.3km/h 83% 0.00in /  0mm
03:54 50.2 °F /  10.1 °C 45.2 °F /  7.3 °C 29.89in /  1012.1hPa South 3.0mph /  4.8km/h 7.0mph /  11.3km/h 83% 0.00in /  0mm
03:59 50.3 °F /  10.2 °C 45.3 °F /  7.4 °C 29.89in /  1012.1hPa SSW 1.0mph /  1.6km/h 7.0mph /  11.3km/h 83% 0.00in /  0mm
04:04 50.2 °F /  10.1 °C 45.2 °F /  7.3 °C 29.89in /  1012.1hPa South 3.0mph /  4.8km/h 7.0mph /  11.3km/h 83% 0.00in /  0mm
04:09 50.2 °F /  10.1 °C 45.2 °F /  7.3 °C 29.90in /  1012.4hPa SSW 3.0mph /  4.8km/h 6.0mph /  9.7km/h 83% 0.00in /  0mm
04:14 50.3 °F /  10.2 °C 45.3 °F /  7.4 °C 29.89in /  1012.1hPa South 3.0mph /  4.8km/h 7.0mph /  11.3km/h 83% 0.00in /  0mm
04:19 50.4 °F /  10.2 °C 45.1 °F /  7.3 °C 29.89in /  1012.1hPa SSW 2.0mph /  3.2km/h 6.0mph /  9.7km/h 82% 0.01in /  0.25mm
04:24 50.4 °F /  10.2 °C 45.1 °F /  7.3 °C 29.89in /  1012.1hPa SSW 3.0mph /  4.8km/h 6.0mph /  9.7km/h 82% 0.01in /  0.25mm
04:29 50.6 °F /  10.3 °C 45.3 °F /  7.4 °C 29.89in /  1012.1hPa SSE 4.0mph /  6.4km/h 9.0mph /  14.5km/h 82% 0.01in /  0.25mm
04:34 50.6 °F /  10.3 °C 45.3 °F /  7.4 °C 29.89in /  1012.1hPa SSW 4.0mph /  6.4km/h 9.0mph /  14.5km/h 82% 0.01in /  0.25mm
04:39 50.5 °F /  10.3 °C 45.2 °F /  7.3 °C 29.89in /  1012.1hPa South 4.0mph /  6.4km/h 8.0mph /  12.9km/h 82% 0.01in /  0.25mm
04:44 50.6 °F /  10.3 °C 45.3 °F /  7.4 °C 29.89in /  1012.1hPa South 4.0mph /  6.4km/h 14.0mph /  22.5km/h 82% 0.01in /  0.25mm
04:49 50.6 °F /  10.3 °C 45.0 °F /  7.2 °C 29.89in /  1012.1hPa South 5.0mph /  8km/h 14.0mph /  22.5km/h 81% 0.01in /  0.25mm
04:54 50.7 °F /  10.4 °C 45.1 °F /  7.3 °C 29.89in /  1012.1hPa South 6.0mph /  9.7km/h 12.0mph /  19.3km/h 81% 0.01in /  0.25mm
04:59 50.5 °F /  10.3 °C 44.9 °F /  7.2 °C 29.89in /  1012.1hPa SSW 6.0mph /  9.7km/h 8.0mph /  12.9km/h 81% 0.01in /  0.25mm
05:04 50.3 °F /  10.2 °C 44.7 °F /  7.1 °C 29.89in /  1012.1hPa South 5.0mph /  8km/h 9.0mph /  14.5km/h 81% 0.01in /  0.25mm
05:09 50.2 °F /  10.1 °C 44.6 °F /  7 °C 29.88in /  1011.7hPa South 5.0mph /  8km/h 9.0mph /  14.5km/h 81% 0.01in /  0.25mm
05:14 50.2 °F /  10.1 °C 44.6 °F /  7 °C 29.88in /  1011.7hPa South 5.0mph /  8km/h 9.0mph /  14.5km/h 81% 0.01in /  0.25mm
05:19 50.2 °F /  10.1 °C 44.6 °F /  7 °C 29.88in /  1011.7hPa SSW 5.0mph /  8km/h 8.0mph /  12.9km/h 81% 0.00in /  0mm
05:24 50.2 °F /  10.1 °C 44.6 °F /  7 °C 29.88in /  1011.7hPa South 6.0mph /  9.7km/h 13.0mph /  20.9km/h 81% 0.00in /  0mm
05:29 50.4 °F /  10.2 °C 44.8 °F /  7.1 °C 29.88in /  1011.7hPa SSW 7.0mph /  11.3km/h 8.0mph /  12.9km/h 81% 0.00in /  0mm
05:34 50.4 °F /  10.2 °C 44.8 °F /  7.1 °C 29.89in /  1012.1hPa South 4.0mph /  6.4km/h 8.0mph /  12.9km/h 81% 0.00in /  0mm
05:39 50.5 °F /  10.3 °C 44.9 °F /  7.2 °C 29.88in /  1011.7hPa South 4.0mph /  6.4km/h 8.0mph /  12.9km/h 81% 0.00in /  0mm
05:44 50.5 °F /  10.3 °C 44.9 °F /  7.2 °C 29.89in /  1012.1hPa South 4.0mph /  6.4km/h 8.0mph /  12.9km/h 81% 0.00in /  0mm
05:49 50.6 °F /  10.3 °C 45.0 °F /  7.2 °C 29.89in /  1012.1hPa South 4.0mph /  6.4km/h 10.0mph /  16.1km/h 81% 0.00in /  0mm
05:54 50.9 °F /  10.5 °C 45.3 °F /  7.4 °C 29.89in /  1012.1hPa South 6.0mph /  9.7km/h 9.0mph /  14.5km/h 81% 0.00in /  0mm
05:59 50.9 °F /  10.5 °C 45.3 °F /  7.4 °C 29.89in /  1012.1hPa SSW 4.0mph /  6.4km/h 9.0mph /  14.5km/h 81% 0.00in /  0mm
06:04 50.9 °F /  10.5 °C 45.3 °F /  7.4 °C 29.89in /  1012.1hPa SSW 5.0mph /  8km/h 9.0mph /  14.5km/h 81% 0.00in /  0mm
06:09 50.9 °F /  10.5 °C 45.3 °F /  7.4 °C 29.89in /  1012.1hPa South 5.0mph /  8km/h 10.0mph /  16.1km/h 81% 0.00in /  0mm
06:14 50.9 °F /  10.5 °C 45.3 °F /  7.4 °C 29.89in /  1012.1hPa SSW 5.0mph /  8km/h 10.0mph /  16.1km/h 81% 0.00in /  0mm
06:19 50.9 °F /  10.5 °C 45.3 °F /  7.4 °C 29.89in /  1012.1hPa SSE 3.0mph /  4.8km/h 8.0mph /  12.9km/h 81% 0.00in /  0mm
06:24 51.0 °F /  10.6 °C 45.4 °F /  7.4 °C 29.89in /  1012.1hPa SW 6.0mph /  9.7km/h 10.0mph /  16.1km/h 81% 0.00in /  0mm
06:29 51.1 °F /  10.6 °C 45.5 °F /  7.5 °C 29.89in /  1012.1hPa SW 5.0mph /  8km/h 9.0mph /  14.5km/h 81% 0.00in /  0mm
06:34 51.2 °F /  10.7 °C 45.6 °F /  7.6 °C 29.89in /  1012.1hPa South 4.0mph /  6.4km/h 11.0mph /  17.7km/h 81% 0.00in /  0mm
06:39 51.2 °F /  10.7 °C 45.6 °F /  7.6 °C 29.89in /  1012.1hPa South 5.0mph /  8km/h 11.0mph /  17.7km/h 81% 0.00in /  0mm
06:44 51.2 °F /  10.7 °C 45.6 °F /  7.6 °C 29.89in /  1012.1hPa South 5.0mph /  8km/h 11.0mph /  17.7km/h 81% 0.00in /  0mm
06:49 51.0 °F /  10.6 °C 45.4 °F /  7.4 °C 29.89in /  1012.1hPa South 5.0mph /  8km/h 11.0mph /  17.7km/h 81% 0.00in /  0mm
06:54 51.0 °F /  10.6 °C 45.4 °F /  7.4 °C 29.89in /  1012.1hPa South 5.0mph /  8km/h 9.0mph /  14.5km/h 81% 0.00in /  0mm
06:59 51.0 °F /  10.6 °C 45.4 °F /  7.4 °C 29.89in /  1012.1hPa South 4.0mph /  6.4km/h 6.0mph /  9.7km/h 81% 0.00in /  0mm
07:04 51.0 °F /  10.6 °C 45.4 °F /  7.4 °C 29.89in /  1012.1hPa SSW 6.0mph /  9.7km/h 9.0mph /  14.5km/h 81% 0.00in /  0mm
07:09 51.0 °F /  10.6 °C 45.4 °F /  7.4 °C 29.89in /  1012.1hPa SSE 4.0mph /  6.4km/h 10.0mph /  16.1km/h 81% 0.00in /  0mm
07:14 50.9 °F /  10.5 °C 45.3 °F /  7.4 °C 29.89in /  1012.1hPa SSW 7.0mph /  11.3km/h 9.0mph /  14.5km/h 81% 0.00in /  0mm
07:19 50.9 °F /  10.5 °C 45.3 °F /  7.4 °C 29.90in /  1012.4hPa South 7.0mph /  11.3km/h 7.0mph /  11.3km/h 81% 0.00in /  0mm
07:24 50.8 °F /  10.4 °C 45.5 °F /  7.5 °C 29.90in /  1012.4hPa ESE 5.0mph /  8km/h 7.0mph /  11.3km/h 82% 0.00in /  0mm
07:29 50.8 °F /  10.4 °C 45.5 °F /  7.5 °C 29.90in /  1012.4hPa SSW 6.0mph /  9.7km/h 7.0mph /  11.3km/h 82% 0.00in /  0mm
07:34 50.8 °F /  10.4 °C 45.5 °F /  7.5 °C 29.90in /  1012.4hPa SSW 4.0mph /  6.4km/h 7.0mph /  11.3km/h 82% 0.00in /  0mm
07:39 50.9 °F /  10.5 °C 45.6 °F /  7.6 °C 29.90in /  1012.4hPa SSW 7.0mph /  11.3km/h 9.0mph /  14.5km/h 82% 0.00in /  0mm
07:44 51.0 °F /  10.6 °C 45.7 °F /  7.6 °C 29.90in /  1012.4hPa SSW 4.0mph /  6.4km/h 9.0mph /  14.5km/h 82% 0.00in /  0mm
07:49 51.2 °F /  10.7 °C 45.9 °F /  7.7 °C 29.90in /  1012.4hPa South 5.0mph /  8km/h 9.0mph /  14.5km/h 82% 0.00in /  0mm
07:54 51.5 °F /  10.8 °C 46.2 °F /  7.9 °C 29.90in /  1012.4hPa South 5.0mph /  8km/h 11.0mph /  17.7km/h 82% 0.00in /  0mm
07:59 51.7 °F /  10.9 °C 46.1 °F /  7.8 °C 29.91in /  1012.8hPa SSW 5.0mph /  8km/h 11.0mph /  17.7km/h 81% 0.00in /  0mm
08:04 51.7 °F /  10.9 °C 46.1 °F /  7.8 °C 29.91in /  1012.8hPa South 6.0mph /  9.7km/h 10.0mph /  16.1km/h 81% 0.00in /  0mm
08:09 51.7 °F /  10.9 °C 46.1 °F /  7.8 °C 29.91in /  1012.8hPa SSW 5.0mph /  8km/h 10.0mph /  16.1km/h 81% 0.00in /  0mm
08:14 51.8 °F /  11 °C 46.5 °F /  8.1 °C 29.91in /  1012.8hPa SSW 5.0mph /  8km/h 10.0mph /  16.1km/h 82% 0.00in /  0mm
08:19 51.9 °F /  11.1 °C 46.6 °F /  8.1 °C 29.91in /  1012.8hPa SSW 5.0mph /  8km/h 9.0mph /  14.5km/h 82% 0.00in /  0mm
08:24 52.0 °F /  11.1 °C 46.7 °F /  8.2 °C 29.91in /  1012.8hPa South 5.0mph /  8km/h 8.0mph /  12.9km/h 82% 0.00in /  0mm
08:29 52.0 °F /  11.1 °C 46.7 °F /  8.2 °C 29.91in /  1012.8hPa South 3.0mph /  4.8km/h 7.0mph /  11.3km/h 82% 0.00in /  0mm
08:34 52.0 °F /  11.1 °C 46.7 °F /  8.2 °C 29.91in /  1012.8hPa South 3.0mph /  4.8km/h 7.0mph /  11.3km/h 82% 0.00in /  0mm
08:39 52.0 °F /  11.1 °C 46.7 °F /  8.2 °C 29.91in /  1012.8hPa SSE 4.0mph /  6.4km/h 9.0mph /  14.5km/h 82% 0.00in /  0mm
08:44 51.9 °F /  11.1 °C 46.6 °F /  8.1 °C 29.91in /  1012.8hPa South 4.0mph /  6.4km/h 9.0mph /  14.5km/h 82% 0.00in /  0mm
08:49 51.9 °F /  11.1 °C 46.9 °F /  8.3 °C 29.91in /  1012.8hPa SSW 4.0mph /  6.4km/h 7.0mph /  11.3km/h 83% 0.00in /  0mm
08:54 51.9 °F /  11.1 °C 46.9 °F /  8.3 °C 29.90in /  1012.4hPa SSW 3.0mph /  4.8km/h 8.0mph /  12.9km/h 83% 0.00in /  0mm
08:59 51.9 °F /  11.1 °C 46.9 °F /  8.3 °C 29.90in /  1012.4hPa WSW 3.0mph /  4.8km/h 7.0mph /  11.3km/h 83% 0.00in /  0mm
09:04 52.0 °F /  11.1 °C 47.3 °F /  8.5 °C 29.90in /  1012.4hPa South 2.0mph /  3.2km/h 7.0mph /  11.3km/h 84% 0.00in /  0mm
09:09 52.0 °F /  11.1 °C 47.3 °F /  8.5 °C 29.90in /  1012.4hPa SSW 6.0mph /  9.7km/h 7.0mph /  11.3km/h 84% 0.00in /  0mm
09:14 52.1 °F /  11.2 °C 47.4 °F /  8.6 °C 29.90in /  1012.4hPa SSW 4.0mph /  6.4km/h 7.0mph /  11.3km/h 84% 0.00in /  0mm
09:19 52.2 °F /  11.2 °C 47.5 °F /  8.6 °C 29.90in /  1012.4hPa SSW 3.0mph /  4.8km/h 7.0mph /  11.3km/h 84% 0.00in /  0mm
09:24 52.4 °F /  11.3 °C 47.7 °F /  8.7 °C 29.89in /  1012.1hPa SSW 3.0mph /  4.8km/h 7.0mph /  11.3km/h 84% 0.00in /  0mm
09:29 52.7 °F /  11.5 °C 48.0 °F /  8.9 °C 29.89in /  1012.1hPa SSW 3.0mph /  4.8km/h 7.0mph /  11.3km/h 84% 0.00in /  0mm
09:34 52.9 °F /  11.6 °C 48.2 °F /  9 °C 29.89in /  1012.1hPa SSW 3.0mph /  4.8km/h 6.0mph /  9.7km/h 84% 0.00in /  0mm
09:39 53.1 °F /  11.7 °C 48.1 °F /  8.9 °C 29.89in /  1012.1hPa SSW 4.0mph /  6.4km/h 6.0mph /  9.7km/h 83% 0.00in /  0mm
09:44 53.3 °F /  11.8 °C 48.3 °F /  9.1 °C 29.89in /  1012.1hPa South 5.0mph /  8km/h 9.0mph /  14.5km/h 83% 0.00in /  0mm
09:49 53.4 °F /  11.9 °C 48.4 °F /  9.1 °C 29.89in /  1012.1hPa SSW 4.0mph /  6.4km/h 9.0mph /  14.5km/h 83% 0.00in /  0mm
09:54 53.5 °F /  11.9 °C 48.5 °F /  9.2 °C 29.90in /  1012.4hPa SW 5.0mph /  8km/h 9.0mph /  14.5km/h 83% 0.00in /  0mm
09:59 53.6 °F /  12 °C 48.6 °F /  9.2 °C 29.89in /  1012.1hPa South 4.0mph /  6.4km/h 8.0mph /  12.9km/h 83% 0.00in /  0mm
10:04 53.5 °F /  11.9 °C 48.5 °F /  9.2 °C 29.90in /  1012.4hPa SSW 4.0mph /  6.4km/h 8.0mph /  12.9km/h 83% 0.00in /  0mm
10:09 53.3 °F /  11.8 °C 48.6 °F /  9.2 °C 29.90in /  1012.4hPa SSW 8.0mph /  12.9km/h 11.0mph /  17.7km/h 84% 0.00in /  0mm
10:14 53.0 °F /  11.7 °C 48.6 °F /  9.2 °C 29.90in /  1012.4hPa South 5.0mph /  8km/h 11.0mph /  17.7km/h 85% 0.00in /  0mm
10:19 53.1 °F /  11.7 °C 48.7 °F /  9.3 °C 29.90in /  1012.4hPa SSW 4.0mph /  6.4km/h 11.0mph /  17.7km/h 85% 0.00in /  0mm
10:24 53.0 °F /  11.7 °C 48.6 °F /  9.2 °C 29.90in /  1012.4hPa SSW 4.0mph /  6.4km/h 8.0mph /  12.9km/h 85% 0.00in /  0mm
10:29 53.0 °F /  11.7 °C 48.6 °F /  9.2 °C 29.90in /  1012.4hPa SSW 4.0mph /  6.4km/h 9.0mph /  14.5km/h 85% 0.00in /  0mm
10:34 52.8 °F /  11.6 °C 48.7 °F /  9.3 °C 29.91in /  1012.8hPa SSW 4.0mph /  6.4km/h 9.0mph /  14.5km/h 86% 0.00in /  0mm
10:39 52.8 °F /  11.6 °C 48.7 °F /  9.3 °C 29.91in /  1012.8hPa SSW 3.0mph /  4.8km/h 8.0mph /  12.9km/h 86% 0.00in /  0mm
10:44 52.9 °F /  11.6 °C 48.8 °F /  9.3 °C 29.91in /  1012.8hPa South 3.0mph /  4.8km/h 7.0mph /  11.3km/h 86% 0.00in /  0mm
10:49 52.8 °F /  11.6 °C 49.0 °F /  9.4 °C 29.91in /  1012.8hPa SSW 4.0mph /  6.4km/h 13.0mph /  20.9km/h 87% 0.00in /  0mm
10:54 52.5 °F /  11.4 °C 49.0 °F /  9.4 °C 29.91in /  1012.8hPa WSW 3.0mph /  4.8km/h 11.0mph /  17.7km/h 88% 0.00in /  0mm
10:59 52.4 °F /  11.3 °C 49.3 °F /  9.6 °C 29.91in /  1012.8hPa SSW 3.0mph /  4.8km/h 9.0mph /  14.5km/h 89% 0.00in /  0mm
11:04 52.2 °F /  11.2 °C 49.1 °F /  9.5 °C 29.91in /  1012.8hPa SW 4.0mph /  6.4km/h 10.0mph /  16.1km/h 89% 0.00in /  0mm
11:09 52.3 °F /  11.3 °C 49.5 °F /  9.7 °C 29.91in /  1012.8hPa SSW 8.0mph /  12.9km/h 11.0mph /  17.7km/h 90% 0.00in /  0mm
11:14 52.1 °F /  11.2 °C 49.3 °F /  9.6 °C 29.92in /  1013.1hPa South 7.0mph /  11.3km/h 13.0mph /  20.9km/h 90% 0.00in /  0mm
11:19 52.1 °F /  11.2 °C 49.3 °F /  9.6 °C 29.92in /  1013.1hPa SW 6.0mph /  9.7km/h 13.0mph /  20.9km/h 90% 0.00in /  0mm
11:24 52.0 °F /  11.1 °C 49.2 °F /  9.6 °C 29.92in /  1013.1hPa SW 6.0mph /  9.7km/h 13.0mph /  20.9km/h 90% 0.00in /  0mm
11:29 52.0 °F /  11.1 °C 49.5 °F /  9.7 °C 29.92in /  1013.1hPa SW 6.0mph /  9.7km/h 13.0mph /  20.9km/h 91% 0.00in /  0mm
11:34 51.7 °F /  10.9 °C 49.2 °F /  9.6 °C 29.92in /  1013.1hPa SW 7.0mph /  11.3km/h 16.0mph /  25.7km/h 91% 0.00in /  0mm
11:39 51.3 °F /  10.7 °C 48.8 °F /  9.3 °C 29.92in /  1013.1hPa SW 7.0mph /  11.3km/h 16.0mph /  25.7km/h 91% 0.00in /  0mm
11:44 51.0 °F /  10.6 °C 48.5 °F /  9.2 °C 29.92in /  1013.1hPa WSW 7.0mph /  11.3km/h 10.0mph /  16.1km/h 91% 0.00in /  0mm
11:49 50.5 °F /  10.3 °C 48.0 °F /  8.9 °C 29.92in /  1013.1hPa SW 7.0mph /  11.3km/h 14.0mph /  22.5km/h 91% 0.00in /  0mm
11:54 49.9 °F /  9.9 °C 47.4 °F /  8.6 °C 29.92in /  1013.1hPa SW 7.0mph /  11.3km/h 14.0mph /  22.5km/h 91% 0.00in /  0mm
11:59 49.5 °F /  9.7 °C 47.0 °F /  8.3 °C 29.92in /  1013.1hPa SW 7.0mph /  11.3km/h 14.0mph /  22.5km/h 91% 0.00in /  0mm
12:04 49.1 °F /  9.5 °C 46.6 °F /  8.1 °C 29.92in /  1013.1hPa WSW 7.0mph /  11.3km/h 11.0mph /  17.7km/h 91% 0.00in /  0mm
12:09 49.1 °F /  9.5 °C 46.9 °F /  8.3 °C 29.92in /  1013.1hPa WSW 3.0mph /  4.8km/h 11.0mph /  17.7km/h 92% 0.00in /  0mm
12:14 49.2 °F /  9.6 °C 47.0 °F /  8.3 °C 29.92in /  1013.1hPa SW 6.0mph /  9.7km/h 11.0mph /  17.7km/h 92% 0.00in /  0mm
12:19 48.9 °F /  9.4 °C 46.7 °F /  8.2 °C 29.92in /  1013.1hPa SW 4.0mph /  6.4km/h 9.0mph /  14.5km/h 92% 0.00in /  0mm
12:24 48.4 °F /  9.1 °C 46.2 °F /  7.9 °C 29.93in /  1013.4hPa SW 6.0mph /  9.7km/h 13.0mph /  20.9km/h 92% 0.00in /  0mm
12:29 47.6 °F /  8.7 °C 45.4 °F /  7.4 °C 29.93in /  1013.4hPa SW 6.0mph /  9.7km/h 13.0mph /  20.9km/h 92% 0.00in /  0mm
12:34 47.6 °F /  8.7 °C 45.4 °F /  7.4 °C 29.93in /  1013.4hPa SW 6.0mph /  9.7km/h 13.0mph /  20.9km/h 92% 0.00in /  0mm
12:39 47.5 °F /  8.6 °C 45.6 °F /  7.6 °C 29.93in /  1013.4hPa SW 7.0mph /  11.3km/h 11.0mph /  17.7km/h 93% 0.00in /  0mm
12:44 47.2 °F /  8.4 °C 45.0 °F /  7.2 °C 29.92in /  1013.1hPa SW 6.0mph /  9.7km/h 11.0mph /  17.7km/h 92% 0.00in /  0mm
12:49 46.9 °F /  8.3 °C 44.7 °F /  7.1 °C 29.93in /  1013.4hPa SW 6.0mph /  9.7km/h 11.0mph /  17.7km/h 92% 0.00in /  0mm
12:54 46.6 °F /  8.1 °C 44.7 °F /  7.1 °C 29.92in /  1013.1hPa SW 6.0mph /  9.7km/h 11.0mph /  17.7km/h 93% 0.00in /  0mm
12:59 46.5 °F /  8.1 °C 44.6 °F /  7 °C 29.93in /  1013.4hPa SW 6.0mph /  9.7km/h 12.0mph /  19.3km/h 93% 0.00in /  0mm
13:04 46.1 °F /  7.8 °C 43.9 °F /  6.6 °C 29.92in /  1013.1hPa WSW 6.0mph /  9.7km/h 14.0mph /  22.5km/h 92% 0.00in /  0mm
13:09 46.1 °F /  7.8 °C 43.9 °F /  6.6 °C 29.93in /  1013.4hPa SW 6.0mph /  9.7km/h 14.0mph /  22.5km/h 92% 0.00in /  0mm
13:14 45.8 °F /  7.7 °C 43.9 °F /  6.6 °C 29.93in /  1013.4hPa SW 4.0mph /  6.4km/h 13.0mph /  20.9km/h 93% 0.00in /  0mm
13:19 45.2 °F /  7.3 °C 43.0 °F /  6.1 °C 29.93in /  1013.4hPa SW 7.0mph /  11.3km/h 12.0mph /  19.3km/h 92% 0.00in /  0mm
13:24 45.2 °F /  7.3 °C 43.3 °F /  6.3 °C 29.93in /  1013.4hPa SW 7.0mph /  11.3km/h 13.0mph /  20.9km/h 93% 0.00in /  0mm
13:29 45.2 °F /  7.3 °C 43.3 °F /  6.3 °C 29.92in /  1013.1hPa SW 6.0mph /  9.7km/h 13.0mph /  20.9km/h 93% 0.00in /  0mm
13:34 45.3 °F /  7.4 °C 43.4 °F /  6.3 °C 29.92in /  1013.1hPa SW 6.0mph /  9.7km/h 13.0mph /  20.9km/h 93% 0.00in /  0mm
13:39 45.4 °F /  7.4 °C 43.5 °F /  6.4 °C 29.93in /  1013.4hPa WSW 6.0mph /  9.7km/h 12.0mph /  19.3km/h 93% 0.00in /  0mm
13:44 45.3 °F /  7.4 °C 43.4 °F /  6.3 °C 29.92in /  1013.1hPa SSE 4.0mph /  6.4km/h 11.0mph /  17.7km/h 93% 0.00in /  0mm
13:49 45.4 °F /  7.4 °C 43.5 °F /  6.4 °C 29.92in /  1013.1hPa WSW 9.0mph /  14.5km/h 10.0mph /  16.1km/h 93% 0.00in /  0mm
13:54 45.4 °F /  7.4 °C 43.5 °F /  6.4 °C 29.92in /  1013.1hPa West 4.0mph /  6.4km/h 12.0mph /  19.3km/h 93% 0.00in /  0mm
13:59 45.4 °F /  7.4 °C 43.5 °F /  6.4 °C 29.92in /  1013.1hPa SW 6.0mph /  9.7km/h 12.0mph /  19.3km/h 93% 0.00in /  0mm
14:04 45.2 °F /  7.3 °C 43.0 °F /  6.1 °C 29.92in /  1013.1hPa SW 7.0mph /  11.3km/h 13.0mph /  20.9km/h 92% 0.00in /  0mm
14:09 45.2 °F /  7.3 °C 43.3 °F /  6.3 °C 29.92in /  1013.1hPa SW 7.0mph /  11.3km/h 13.0mph /  20.9km/h 93% 0.00in /  0mm
14:14 45.4 °F /  7.4 °C 43.5 °F /  6.4 °C 29.92in /  1013.1hPa WSW 7.0mph /  11.3km/h 14.0mph /  22.5km/h 93% 0.00in /  0mm
14:19 45.5 °F /  7.5 °C 43.6 °F /  6.4 °C 29.93in /  1013.4hPa WSW 7.0mph /  11.3km/h 11.0mph /  17.7km/h 93% 0.00in /  0mm
14:24 45.5 °F /  7.5 °C 43.3 °F /  6.3 °C 29.93in /  1013.4hPa WSW 5.0mph /  8km/h 13.0mph /  20.9km/h 92% 0.00in /  0mm
14:29 45.7 °F /  7.6 °C 43.5 °F /  6.4 °C 29.93in /  1013.4hPa SW 6.0mph /  9.7km/h 11.0mph /  17.7km/h 92% 0.00in /  0mm
14:34 45.8 °F /  7.7 °C 43.6 °F /  6.4 °C 29.92in /  1013.1hPa SW 6.0mph /  9.7km/h 11.0mph /  17.7km/h 92% 0.00in /  0mm
14:39 45.8 °F /  7.7 °C 43.6 °F /  6.4 °C 29.93in /  1013.4hPa WSW 6.0mph /  9.7km/h 15.0mph /  24.1km/h 92% 0.00in /  0mm
14:44 45.7 °F /  7.6 °C 43.5 °F /  6.4 °C 29.93in /  1013.4hPa West 3.0mph /  4.8km/h 12.0mph /  19.3km/h 92% 0.00in /  0mm
14:49 45.6 °F /  7.6 °C 43.4 °F /  6.3 °C 29.93in /  1013.4hPa SW 10.0mph /  16.1km/h 11.0mph /  17.7km/h 92% 0.00in /  0mm
14:54 45.5 °F /  7.5 °C 43.3 °F /  6.3 °C 29.93in /  1013.4hPa SW 7.0mph /  11.3km/h 12.0mph /  19.3km/h 92% 0.00in /  0mm
14:59 45.5 °F /  7.5 °C 43.3 °F /  6.3 °C 29.92in /  1013.1hPa SW 5.0mph /  8km/h 10.0mph /  16.1km/h 92% 0.00in /  0mm
15:04 45.7 °F /  7.6 °C 43.5 °F /  6.4 °C 29.92in /  1013.1hPa SW 5.0mph /  8km/h 13.0mph /  20.9km/h 92% 0.00in /  0mm
15:09 45.8 °F /  7.7 °C 43.6 °F /  6.4 °C 29.92in /  1013.1hPa SW 5.0mph /  8km/h 13.0mph /  20.9km/h 92% 0.00in /  0mm
15:14 45.7 °F /  7.6 °C 43.5 °F /  6.4 °C 29.92in /  1013.1hPa SW 5.0mph /  8km/h 11.0mph /  17.7km/h 92% 0.00in /  0mm
15:19 45.8 °F /  7.7 °C 43.6 °F /  6.4 °C 29.93in /  1013.4hPa SW 6.0mph /  9.7km/h 12.0mph /  19.3km/h 92% 0.00in /  0mm
15:24 45.9 °F /  7.7 °C 43.7 °F /  6.5 °C 29.92in /  1013.1hPa SW 8.0mph /  12.9km/h 10.0mph /  16.1km/h 92% 0.00in /  0mm
15:29 45.9 °F /  7.7 °C 43.7 °F /  6.5 °C 29.92in /  1013.1hPa WSW 5.0mph /  8km/h 13.0mph /  20.9km/h 92% 0.00in /  0mm
15:34 45.9 °F /  7.7 °C 43.7 °F /  6.5 °C 29.92in /  1013.1hPa SW 6.0mph /  9.7km/h 13.0mph /  20.9km/h 92% 0.00in /  0mm
15:39 46.2 °F /  7.9 °C 44.0 °F /  6.7 °C 29.92in /  1013.1hPa WSW 10.0mph /  16.1km/h 14.0mph /  22.5km/h 92% 0.00in /  0mm
15:44 47.0 °F /  8.3 °C 45.1 °F /  7.3 °C 29.92in /  1013.1hPa SSW 4.0mph /  6.4km/h 11.0mph /  17.7km/h 93% 0.00in /  0mm
15:49 47.6 °F /  8.7 °C 45.4 °F /  7.4 °C 29.92in /  1013.1hPa WSW 7.0mph /  11.3km/h 11.0mph /  17.7km/h 92% 0.00in /  0mm
15:54 48.2 °F /  9 °C 45.7 °F /  7.6 °C 29.92in /  1013.1hPa SW 6.0mph /  9.7km/h 11.0mph /  17.7km/h 91% 0.00in /  0mm
15:59 49.0 °F /  9.4 °C 46.2 °F /  7.9 °C 29.92in /  1013.1hPa SW 6.0mph /  9.7km/h 11.0mph /  17.7km/h 90% 0.00in /  0mm
16:04 49.6 °F /  9.8 °C 46.5 °F /  8.1 °C 29.92in /  1013.1hPa SW 6.0mph /  9.7km/h 12.0mph /  19.3km/h 89% 0.00in /  0mm
16:09 49.7 °F /  9.8 °C 46.3 °F /  7.9 °C 29.92in /  1013.1hPa SW 6.0mph /  9.7km/h 12.0mph /  19.3km/h 88% 0.00in /  0mm
16:14 49.9 °F /  9.9 °C 46.5 °F /  8.1 °C 29.92in /  1013.1hPa SW 5.0mph /  8km/h 12.0mph /  19.3km/h 88% 0.00in /  0mm
16:19 49.6 °F /  9.8 °C 45.9 °F /  7.7 °C 29.92in /  1013.1hPa SW 5.0mph /  8km/h 11.0mph /  17.7km/h 87% 0.00in /  0mm
16:24 49.4 °F /  9.7 °C 45.7 °F /  7.6 °C 29.91in /  1012.8hPa SW 5.0mph /  8km/h 11.0mph /  17.7km/h 87% 0.00in /  0mm
16:29 49.1 °F /  9.5 °C 45.4 °F /  7.4 °C 29.92in /  1013.1hPa SW 5.0mph /  8km/h 13.0mph /  20.9km/h 87% 0.00in /  0mm
16:34 48.9 °F /  9.4 °C 45.2 °F /  7.3 °C 29.92in /  1013.1hPa SSW 6.0mph /  9.7km/h 11.0mph /  17.7km/h 87% 0.00in /  0mm
16:39 48.3 °F /  9.1 °C 44.6 °F /  7 °C 29.91in /  1012.8hPa South 4.0mph /  6.4km/h 9.0mph /  14.5km/h 87% 0.00in /  0mm
16:44 48.1 °F /  8.9 °C 44.4 °F /  6.9 °C 29.92in /  1013.1hPa SW 6.0mph /  9.7km/h 10.0mph /  16.1km/h 87% 0.00in /  0mm
16:49 47.9 °F /  8.8 °C 44.5 °F /  6.9 °C 29.92in /  1013.1hPa WSW 8.0mph /  12.9km/h 10.0mph /  16.1km/h 88% 0.00in /  0mm
16:54 48.1 °F /  8.9 °C 45.0 °F /  7.2 °C 29.91in /  1012.8hPa West 5.0mph /  8km/h 9.0mph /  14.5km/h 89% 0.00in /  0mm
16:59 48.4 °F /  9.1 °C 45.3 °F /  7.4 °C 29.92in /  1013.1hPa SW 7.0mph /  11.3km/h 9.0mph /  14.5km/h 89% 0.00in /  0mm
17:04 48.7 °F /  9.3 °C 45.6 °F /  7.6 °C 29.91in /  1012.8hPa WSW 5.0mph /  8km/h 11.0mph /  17.7km/h 89% 0.00in /  0mm
17:09 48.8 °F /  9.3 °C 45.7 °F /  7.6 °C 29.92in /  1013.1hPa WSW 6.0mph /  9.7km/h 13.0mph /  20.9km/h 89% 0.00in /  0mm
17:14 48.7 °F /  9.3 °C 45.3 °F /  7.4 °C 29.91in /  1012.8hPa WSW 6.0mph /  9.7km/h 13.0mph /  20.9km/h 88% 0.00in /  0mm
17:19 48.6 °F /  9.2 °C 45.5 °F /  7.5 °C 29.91in /  1012.8hPa SW 6.0mph /  9.7km/h 13.0mph /  20.9km/h 89% 0.00in /  0mm
17:24 48.7 °F /  9.3 °C 45.6 °F /  7.6 °C 29.91in /  1012.8hPa SW 6.0mph /  9.7km/h 13.0mph /  20.9km/h 89% 0.00in /  0mm
17:29 48.7 °F /  9.3 °C 45.6 °F /  7.6 °C 29.91in /  1012.8hPa WSW 4.0mph /  6.4km/h 13.0mph /  20.9km/h 89% 0.00in /  0mm
17:34 48.9 °F /  9.4 °C 45.8 °F /  7.7 °C 29.91in /  1012.8hPa WSW 6.0mph /  9.7km/h 11.0mph /  17.7km/h 89% 0.00in /  0mm
17:39 49.0 °F /  9.4 °C 45.9 °F /  7.7 °C 29.91in /  1012.8hPa SW 6.0mph /  9.7km/h 11.0mph /  17.7km/h 89% 0.00in /  0mm
17:44 49.1 °F /  9.5 °C 46.3 °F /  7.9 °C 29.91in /  1012.8hPa SW 6.0mph /  9.7km/h 12.0mph /  19.3km/h 90% 0.00in /  0mm
17:49 49.5 °F /  9.7 °C 46.7 °F /  8.2 °C 29.91in /  1012.8hPa WSW 6.0mph /  9.7km/h 11.0mph /  17.7km/h 90% 0.00in /  0mm
17:54 50.1 °F /  10.1 °C 47.3 °F /  8.5 °C 29.91in /  1012.8hPa WSW 4.0mph /  6.4km/h 9.0mph /  14.5km/h 90% 0.00in /  0mm
17:59 50.3 °F /  10.2 °C 47.2 °F /  8.4 °C 29.91in /  1012.8hPa SW 8.0mph /  12.9km/h 10.0mph /  16.1km/h 89% 0.00in /  0mm
18:04 50.3 °F /  10.2 °C 47.2 °F /  8.4 °C 29.91in /  1012.8hPa WSW 6.0mph /  9.7km/h 11.0mph /  17.7km/h 89% 0.00in /  0mm
18:09 50.4 °F /  10.2 °C 47.0 °F /  8.3 °C 29.92in /  1013.1hPa WSW 6.0mph /  9.7km/h 13.0mph /  20.9km/h 88% 0.00in /  0mm
18:14 50.3 °F /  10.2 °C 46.9 °F /  8.3 °C 29.91in /  1012.8hPa SW 7.0mph /  11.3km/h 13.0mph /  20.9km/h 88% 0.00in /  0mm
18:19 50.4 °F /  10.2 °C 47.0 °F /  8.3 °C 29.91in /  1012.8hPa WSW 6.0mph /  9.7km/h 13.0mph /  20.9km/h 88% 0.00in /  0mm
18:24 50.2 °F /  10.1 °C 46.8 °F /  8.2 °C 29.92in /  1013.1hPa WSW 6.0mph /  9.7km/h 14.0mph /  22.5km/h 88% 0.00in /  0mm
18:29 50.1 °F /  10.1 °C 46.7 °F /  8.2 °C 29.91in /  1012.8hPa WSW 7.0mph /  11.3km/h 14.0mph /  22.5km/h 88% 0.00in /  0mm
18:34 49.9 °F /  9.9 °C 46.5 °F /  8.1 °C 29.92in /  1013.1hPa SW 7.0mph /  11.3km/h 14.0mph /  22.5km/h 88% 0.00in /  0mm
18:39 49.9 °F /  9.9 °C 46.5 °F /  8.1 °C 29.92in /  1013.1hPa SW 7.0mph /  11.3km/h 14.0mph /  22.5km/h 88% 0.00in /  0mm
18:44 49.9 °F /  9.9 °C 46.5 °F /  8.1 °C 29.92in /  1013.1hPa SW 6.0mph /  9.7km/h 13.0mph /  20.9km/h 88% 0.00in /  0mm
18:49 49.9 °F /  9.9 °C 46.5 °F /  8.1 °C 29.92in /  1013.1hPa WSW 4.0mph /  6.4km/h 8.0mph /  12.9km/h 88% 0.00in /  0mm
18:54 49.8 °F /  9.9 °C 46.4 °F /  8 °C 29.92in /  1013.1hPa SSW 4.0mph /  6.4km/h 7.0mph /  11.3km/h 88% 0.00in /  0mm
18:59 49.7 °F /  9.8 °C 46.3 °F /  7.9 °C 29.92in /  1013.1hPa SW 8.0mph /  12.9km/h 11.0mph /  17.7km/h 88% 0.00in /  0mm
19:04 49.5 °F /  9.7 °C 46.1 °F /  7.8 °C 29.92in /  1013.1hPa South 9.0mph /  14.5km/h 11.0mph /  17.7km/h 88% 0.00in /  0mm
19:09 49.4 °F /  9.7 °C 46.0 °F /  7.8 °C 29.92in /  1013.1hPa WSW 4.0mph /  6.4km/h 10.0mph /  16.1km/h 88% 0.00in /  0mm
19:14 49.2 °F /  9.6 °C 46.1 °F /  7.8 °C 29.92in /  1013.1hPa SW 8.0mph /  12.9km/h 8.0mph /  12.9km/h 89% 0.00in /  0mm
19:19 49.1 °F /  9.5 °C 46.0 °F /  7.8 °C 29.92in /  1013.1hPa SW 4.0mph /  6.4km/h 8.0mph /  12.9km/h 89% 0.00in /  0mm
19:24 48.9 °F /  9.4 °C 45.8 °F /  7.7 °C 29.92in /  1013.1hPa WSW 3.0mph /  4.8km/h 8.0mph /  12.9km/h 89% 0.00in /  0mm
19:29 48.8 °F /  9.3 °C 45.7 °F /  7.6 °C 29.92in /  1013.1hPa SW 3.0mph /  4.8km/h 8.0mph /  12.9km/h 89% 0.00in /  0mm
19:34 48.8 °F /  9.3 °C 45.7 °F /  7.6 °C 29.92in /  1013.1hPa SW 3.0mph /  4.8km/h 7.0mph /  11.3km/h 89% 0.00in /  0mm
19:39 48.8 °F /  9.3 °C 46.0 °F /  7.8 °C 29.91in /  1012.8hPa SW 3.0mph /  4.8km/h 7.0mph /  11.3km/h 90% 0.00in /  0mm
19:44 48.7 °F /  9.3 °C 45.9 °F /  7.7 °C 29.91in /  1012.8hPa WSW 3.0mph /  4.8km/h 7.0mph /  11.3km/h 90% 0.00in /  0mm
19:49 48.6 °F /  9.2 °C 45.8 °F /  7.7 °C 29.92in /  1013.1hPa SW 4.0mph /  6.4km/h 6.0mph /  9.7km/h 90% 0.00in /  0mm
19:54 48.7 °F /  9.3 °C 45.9 °F /  7.7 °C 29.92in /  1013.1hPa SW 5.0mph /  8km/h 8.0mph /  12.9km/h 90% 0.00in /  0mm
19:59 48.7 °F /  9.3 °C 45.9 °F /  7.7 °C 29.92in /  1013.1hPa WSW 3.0mph /  4.8km/h 7.0mph /  11.3km/h 90% 0.00in /  0mm
20:09 48.5 °F /  9.2 °C 45.7 °F /  7.6 °C 29.92in /  1013.1hPa WSW 4.0mph /  6.4km/h 6.0mph /  9.7km/h 90% 0.00in /  0mm
20:14 48.4 °F /  9.1 °C 45.6 °F /  7.6 °C 29.92in /  1013.1hPa WSW 2.0mph /  3.2km/h 7.0mph /  11.3km/h 90% 0.00in /  0mm
20:19 48.3 °F /  9.1 °C 45.8 °F /  7.7 °C 29.92in /  1013.1hPa WSW 1.0mph /  1.6km/h 8.0mph /  12.9km/h 91% 0.00in /  0mm
20:24 48.2 °F /  9 °C 45.4 °F /  7.4 °C 29.92in /  1013.1hPa SW 3.0mph /  4.8km/h 8.0mph /  12.9km/h 90% 0.00in /  0mm
20:29 48.1 °F /  8.9 °C 45.3 °F /  7.4 °C 29.92in /  1013.1hPa SW 4.0mph /  6.4km/h 7.0mph /  11.3km/h 90% 0.00in /  0mm
20:34 47.8 °F /  8.8 °C 45.0 °F /  7.2 °C 29.92in /  1013.1hPa SW 4.0mph /  6.4km/h 7.0mph /  11.3km/h 90% 0.00in /  0mm
20:39 47.8 °F /  8.8 °C 45.3 °F /  7.4 °C 29.92in /  1013.1hPa SW 3.0mph /  4.8km/h 6.0mph /  9.7km/h 91% 0.00in /  0mm
20:44 47.6 °F /  8.7 °C 45.1 °F /  7.3 °C 29.92in /  1013.1hPa SW 2.0mph /  3.2km/h 6.0mph /  9.7km/h 91% 0.00in /  0mm
20:49 47.4 °F /  8.6 °C 44.9 °F /  7.2 °C 29.93in /  1013.4hPa SW 4.0mph /  6.4km/h 5.0mph /  8km/h 91% 0.00in /  0mm
20:54 47.3 °F /  8.5 °C 44.8 °F /  7.1 °C 29.93in /  1013.4hPa SW 2.0mph /  3.2km/h 5.0mph /  8km/h 91% 0.00in /  0mm
20:59 47.1 °F /  8.4 °C 44.6 °F /  7 °C 29.93in /  1013.4hPa SW 2.0mph /  3.2km/h 5.0mph /  8km/h 91% 0.00in /  0mm
21:04 47.0 °F /  8.3 °C 44.5 °F /  6.9 °C 29.93in /  1013.4hPa SW 2.0mph /  3.2km/h 5.0mph /  8km/h 91% 0.00in /  0mm
21:09 46.9 °F /  8.3 °C 44.4 °F /  6.9 °C 29.93in /  1013.4hPa SW 2.0mph /  3.2km/h 5.0mph /  8km/h 91% 0.00in /  0mm
21:14 46.9 °F /  8.3 °C 44.4 °F /  6.9 °C 29.93in /  1013.4hPa Calm   2.0mph /  3.2km/h 91% 0.00in /  0mm
21:19 46.9 °F /  8.3 °C 44.4 °F /  6.9 °C 29.93in /  1013.4hPa Calm     91% 0.00in /  0mm
21:24 46.7 °F /  8.2 °C 44.2 °F /  6.8 °C 29.93in /  1013.4hPa Calm     91% 0.00in /  0mm
21:29 46.6 °F /  8.1 °C 44.1 °F /  6.7 °C 29.93in /  1013.4hPa South 1.0mph /  1.6km/h 3.0mph /  4.8km/h 91% 0.00in /  0mm
21:34 46.6 °F /  8.1 °C 44.1 °F /  6.7 °C 29.93in /  1013.4hPa Calm   3.0mph /  4.8km/h 91% 0.00in /  0mm
21:39 46.7 °F /  8.2 °C 44.5 °F /  6.9 °C 29.93in /  1013.4hPa South 1.0mph /  1.6km/h 3.0mph /  4.8km/h 92% 0.00in /  0mm
21:44 46.6 °F /  8.1 °C 44.1 °F /  6.7 °C 29.93in /  1013.4hPa Calm   3.0mph /  4.8km/h 91% 0.00in /  0mm
21:49 46.3 °F /  7.9 °C 43.8 °F /  6.6 °C 29.93in /  1013.4hPa South 1.0mph /  1.6km/h 1.0mph /  1.6km/h 91% 0.00in /  0mm
21:54 46.2 °F /  7.9 °C 44.0 °F /  6.7 °C 29.93in /  1013.4hPa SSW 1.0mph /  1.6km/h 3.0mph /  4.8km/h 92% 0.00in /  0mm
21:59 46.0 °F /  7.8 °C 43.8 °F /  6.6 °C 29.93in /  1013.4hPa SSW 1.0mph /  1.6km/h 3.0mph /  4.8km/h 92% 0.00in /  0mm
22:04 45.8 °F /  7.7 °C 43.6 °F /  6.4 °C 29.93in /  1013.4hPa SSW 1.0mph /  1.6km/h 3.0mph /  4.8km/h 92% 0.00in /  0mm
22:09 46.0 °F /  7.8 °C 43.8 °F /  6.6 °C 29.92in /  1013.1hPa SSW 1.0mph /  1.6km/h 2.0mph /  3.2km/h 92% 0.00in /  0mm
22:14 46.1 °F /  7.8 °C 43.9 °F /  6.6 °C 29.93in /  1013.4hPa SSW 1.0mph /  1.6km/h 3.0mph /  4.8km/h 92% 0.00in /  0mm
22:19 46.3 °F /  7.9 °C 44.1 °F /  6.7 °C 29.92in /  1013.1hPa SSW 3.0mph /  4.8km/h 4.0mph /  6.4km/h 92% 0.00in /  0mm
22:24 46.9 °F /  8.3 °C 45.0 °F /  7.2 °C 29.92in /  1013.1hPa SSW 2.0mph /  3.2km/h 5.0mph /  8km/h 93% 0.00in /  0mm
22:29 47.3 °F /  8.5 °C 45.1 °F /  7.3 °C 29.92in /  1013.1hPa SSW 3.0mph /  4.8km/h 5.0mph /  8km/h 92% 0.00in /  0mm
22:34 47.5 °F /  8.6 °C 45.3 °F /  7.4 °C 29.92in /  1013.1hPa South 2.0mph /  3.2km/h 4.0mph /  6.4km/h 92% 0.00in /  0mm
22:39 47.7 °F /  8.7 °C 45.5 °F /  7.5 °C 29.91in /  1012.8hPa South 2.0mph /  3.2km/h 4.0mph /  6.4km/h 92% 0.00in /  0mm
22:44 47.9 °F /  8.8 °C 45.7 °F /  7.6 °C 29.91in /  1012.8hPa SSW 2.0mph /  3.2km/h 4.0mph /  6.4km/h 92% 0.00in /  0mm
22:49 47.9 °F /  8.8 °C 45.7 °F /  7.6 °C 29.92in /  1013.1hPa Calm   4.0mph /  6.4km/h 92% 0.00in /  0mm
22:54 47.8 °F /  8.8 °C 45.3 °F /  7.4 °C 29.92in /  1013.1hPa Calm   2.0mph /  3.2km/h 91% 0.00in /  0mm
22:59 47.6 °F /  8.7 °C 45.1 °F /  7.3 °C 29.91in /  1012.8hPa Calm   2.0mph /  3.2km/h 91% 0.00in /  0mm
23:04 47.4 °F /  8.6 °C 44.9 °F /  7.2 °C 29.91in /  1012.8hPa Calm     91% 0.00in /  0mm
23:09 47.2 °F /  8.4 °C 44.7 °F /  7.1 °C 29.91in /  1012.8hPa Calm     91% 0.00in /  0mm
23:14 47.0 °F /  8.3 °C 44.5 °F /  6.9 °C 29.91in /  1012.8hPa Calm     91% 0.00in /  0mm
23:19 46.8 °F /  8.2 °C 44.3 °F /  6.8 °C 29.91in /  1012.8hPa Calm     91% 0.00in /  0mm
23:24 46.6 °F /  8.1 °C 44.1 °F /  6.7 °C 29.91in /  1012.8hPa Calm     91% 0.00in /  0mm
23:34 46.1 °F /  7.8 °C 43.6 °F /  6.4 °C 29.91in /  1012.8hPa Calm     91% 0.00in /  0mm
23:39 46.0 °F /  7.8 °C 43.8 °F /  6.6 °C 29.91in /  1012.8hPa Calm     92% 0.00in /  0mm
23:44 46.0 °F /  7.8 °C 43.8 °F /  6.6 °C 29.91in /  1012.8hPa Calm     92% 0.00in /  0mm
23:49 46.1 °F /  7.8 °C 43.9 °F /  6.6 °C 29.91in /  1012.8hPa Calm     92% 0.00in /  0mm
23:54 46.2 °F /  7.9 °C 44.0 °F /  6.7 °C 29.90in /  1012.4hPa Calm     92% 0.00in /  0mm
23:59 46.4 °F /  8 °C 44.2 °F /  6.8 °C 29.91in /  1012.8hPa Calm     92% 0.00in /  0mm
Buffalo, New York, USA
Compliments of Weather Underground - 2.5 mb